Lilypad — WDD9770 — position and weather

sailwx.info

Track history (hours):
 
Tides and Currents Weather Stations Pressure Air Temp Water Temp Dewpoint Dewpoint Depression Visibility Wind Speed Wind Dir Waves Ship Positions

Lilypad

Owner: weippert, don w, Yakima, WA. More information available from US FCC via Universal Licensing System and Coast Guard Vessel Documentation Center.

Last reported at 2016-Aug-27 02:26 UTC. Time now 2016-Aug-27 09:52 UTC.
Position N 47°20' W 122°35'.

Length 18 m; draft 2 m.

Type: Pleasure craft. MMSI: 367316110.

Date/timePositionNaut miles runAvg speedWind from/ knotsBaromVisibWave heightAir tempDewpointWater temp
2016-Aug-27 02:26N 47°20' W 122°35'6 7.0
2016-Aug-27 01:34N 47°25' W 122°32'7 6.9
2016-Aug-27 00:34N 47°32' W 122°29'7 7.2
2016-Aug-26 23:33N 47°39' W 122°28'3 2.7
2016-Aug-26 22:34N 47°41' W 122°24'  
2016-Aug-21 18:05N 47°41' W 122°24'0 0.0
2016-Aug-21 17:34N 47°41' W 122°24'5 5.0
2016-Aug-21 16:33N 47°36' W 122°27'5 4.5
2016-Aug-21 15:33N 47°32' W 122°30'0 0.0
2016-Aug-20 02:33N 47°32' W 122°30'5 5.0
2016-Aug-20 01:33N 47°37' W 122°28'5 0.2
2016-Aug-19 03:29N 47°41' W 122°24'0 0.0
2016-Aug-19 02:33N 47°41' W 122°24'  
Track history (hours):
 
Tides and Currents Weather Stations Pressure Air Temp Water Temp Dewpoint Dewpoint Depression Visibility Wind Speed Wind Dir Waves Ship Positions

Lilypad

Owner: weippert, don w, Yakima, WA. More information available from US FCC via Universal Licensing System and Coast Guard Vessel Documentation Center.

Last reported at 2016-Aug-27 02:26 UTC. Time now 2016-Aug-27 09:52 UTC.
Position N 47°20' W 122°35'.

Length 18 m; draft 2 m.

Type: Pleasure craft. MMSI: 367316110.

Date/timePositionNaut miles runAvg speedWind from/ knotsBaromVisibWave heightAir tempDewpointWater temp
2016-Aug-27 02:26N 47°20' W 122°35'6 7.0
2016-Aug-27 01:34N 47°25' W 122°32'7 6.9
2016-Aug-27 00:34N 47°32' W 122°29'7 7.2
2016-Aug-26 23:33N 47°39' W 122°28'3 2.7
2016-Aug-26 22:34N 47°41' W 122°24'  
2016-Aug-21 18:05N 47°41' W 122°24'0 0.0
2016-Aug-21 17:34N 47°41' W 122°24'5 5.0
2016-Aug-21 16:33N 47°36' W 122°27'5 4.5
2016-Aug-21 15:33N 47°32' W 122°30'0 0.0
2016-Aug-20 02:33N 47°32' W 122°30'5 5.0
2016-Aug-20 01:33N 47°37' W 122°28'5 0.2
2016-Aug-19 03:29N 47°41' W 122°24'0 0.0
2016-Aug-19 02:33N 47°41' W 122°24'  

Dump ship's entire track history